Time;durP1;ratioP1;P1;durP2;ratioP2;P2;SDS_P1;SDS_P2;PMS_P1;PMS_P2;Temp;Humidity;BMP_temperature;BMP_pressure;BME280_temperature;BME280_humidity;BME280_pressure;Samples;Min_cycle;Max_cycle;Signal;HPM_P1;HPM_P2
2022/07/13 00:00:06;;;;;;;12.32;10.70;;;25.60;99.90;;;26.06;58.15;101966.56;5055259;28;20048;-62
2022/07/13 00:02:36;;;;;;;11.70;10.65;;;25.60;99.90;;;26.03;59.00;101960.38;5055139;28;20041;-62
2022/07/13 00:05:06;;;;;;;12.27;10.57;;;25.50;99.90;;;26.07;58.40;101953.88;5055457;28;20048;-63
2022/07/13 00:07:35;;;;;;;11.07;9.73;;;25.50;99.90;;;26.07;58.79;101952.06;5055166;28;20053;-62
2022/07/13 00:10:04;;;;;;;10.90;9.55;;;25.60;99.90;;;25.94;58.77;101930.06;5055095;28;20099;-63
2022/07/13 00:12:33;;;;;;;10.52;9.50;;;25.60;99.90;;;26.04;58.49;101949.44;5054849;28;20041;-63
2022/07/13 00:15:01;;;;;;;12.50;9.88;;;25.60;99.90;;;26.02;58.54;101958.59;5055261;28;20135;-62
2022/07/13 00:17:29;;;;;;;10.65;9.75;;;25.50;99.90;;;25.99;58.26;101954.25;5054922;28;20490;-63
2022/07/13 00:19:59;;;;;;;11.90;10.38;;;25.50;99.90;;;26.00;58.44;101952.41;5055688;28;20067;-63
2022/07/13 00:22:27;;;;;;;10.80;9.87;;;25.50;99.90;;;26.01;58.35;101948.72;5054888;28;20525;-63
2022/07/13 00:24:55;;;;;;;11.40;10.05;;;25.50;99.90;;;25.96;58.46;101932.69;5055088;28;20055;-62
2022/07/13 00:27:24;;;;;;;11.57;9.73;;;25.50;99.90;;;25.99;58.58;101935.25;5054744;28;20044;-62
2022/07/13 00:29:52;;;;;;;14.35;9.88;;;25.50;99.90;;;26.02;58.44;101942.31;5054849;28;20494;-62
2022/07/13 00:32:20;;;;;;;12.80;9.25;;;25.50;99.90;;;26.04;58.23;101935.88;5053936;28;20037;-62
2022/07/13 00:34:49;;;;;;;10.55;9.55;;;25.50;99.90;;;26.02;58.01;101948.66;5053519;28;20048;-62
2022/07/13 00:37:18;;;;;;;17.20;9.65;;;25.50;99.90;;;26.03;57.90;101939.56;5054833;28;20076;-62
2022/07/13 00:39:47;;;;;;;10.60;9.43;;;25.50;99.90;;;26.04;57.89;101940.41;5054548;28;20453;-62
2022/07/13 00:42:15;;;;;;;10.20;8.90;;;25.50;99.90;;;26.07;57.61;101935.78;5054687;28;20029;-62
2022/07/13 00:44:43;;;;;;;10.18;9.02;;;25.60;99.90;;;26.07;57.45;101934.88;5052993;28;20049;-62
2022/07/13 00:47:12;;;;;;;11.15;9.82;;;25.60;99.90;;;26.03;57.40;101939.56;5053335;28;20045;-62
2022/07/13 00:49:41;;;;;;;14.05;10.10;;;25.60;99.90;;;26.09;57.69;101927.56;5053354;28;20136;-62
2022/07/13 00:52:11;;;;;;;11.70;10.50;;;25.60;99.90;;;26.11;58.20;101925.63;5054269;28;20076;-62
2022/07/13 00:54:43;;;;;;;12.68;9.98;;;25.60;99.90;;;26.08;58.05;101914.94;5053236;28;20388;-63
2022/07/13 00:57:15;;;;;;;10.20;9.20;;;25.60;99.90;;;25.99;58.13;101909.97;5054784;28;20099;-62
2022/07/13 00:59:43;;;;;;;12.70;10.15;;;25.50;99.90;;;26.07;58.41;101914.06;5054473;28;20051;-62
2022/07/13 01:02:11;;;;;;;11.73;10.43;;;25.50;99.90;;;26.07;58.60;101902.34;5053107;28;20049;-62
2022/07/13 01:04:40;;;;;;;13.48;10.30;;;25.50;99.90;;;25.92;59.11;101896.72;5054292;28;20403;-62
2022/07/13 01:07:08;;;;;;;11.40;10.10;;;25.40;99.90;;;25.87;59.08;101895.19;5053085;28;20124;-62
2022/07/13 01:09:37;;;;;;;10.23;9.18;;;25.30;99.90;;;25.80;58.82;101891.91;5054261;28;20072;-62
2022/07/13 01:12:07;;;;;;;12.45;9.75;;;25.30;99.90;;;25.72;58.95;101899.59;5053883;28;20384;-62
2022/07/13 01:14:36;;;;;;;10.85;9.52;;;25.20;99.90;;;25.66;59.10;101891.75;5054121;28;20049;-62
2022/07/13 01:17:05;;;;;;;12.88;9.27;;;25.20;99.90;;;25.58;59.02;101896.69;5052765;28;20498;-62
2022/07/13 01:19:35;;;;;;;13.52;9.23;;;25.10;99.90;;;25.63;58.93;101891.91;5053025;28;20057;-63
2022/07/13 01:22:05;;;;;;;13.07;9.02;;;25.20;99.90;;;25.68;58.71;101903.41;5054042;28;20099;-62
2022/07/13 01:24:35;;;;;;;12.43;9.38;;;25.20;99.90;;;25.68;58.35;101906.13;5053665;28;20506;-62
2022/07/13 01:27:04;;;;;;;18.58;9.50;;;25.20;99.90;;;25.71;58.17;101905.94;5054000;28;20478;-62
2022/07/13 01:29:32;;;;;;;9.85;8.85;;;25.20;99.90;;;25.76;57.83;101900.31;5052811;28;20491;-62
2022/07/13 01:32:01;;;;;;;13.45;9.38;;;25.30;99.90;;;25.72;57.63;101899.59;5053832;28;20041;-62
2022/07/13 01:34:29;;;;;;;10.90;9.02;;;25.30;99.90;;;25.25;57.74;101837.81;5053717;28;20128;-62
2022/07/13 01:36:58;;;;;;;15.75;8.77;;;25.30;99.90;;;25.75;57.49;101898.53;5053912;28;20487;-62
2022/07/13 01:39:27;;;;;;;9.00;8.00;;;25.30;99.90;;;25.60;57.41;101870.38;5052162;28;20131;-62
2022/07/13 01:41:56;;;;;;;15.88;8.48;;;25.30;99.90;;;25.78;57.24;101896.53;5053418;28;20072;-62
2022/07/13 01:44:25;;;;;;;11.02;8.02;;;25.30;99.90;;;25.83;57.07;101889.06;5052339;28;20068;-62
2022/07/13 01:46:54;;;;;;;10.32;7.25;;;25.30;99.90;;;25.87;56.84;101890.66;5052304;28;20487;-62
2022/07/13 01:49:22;;;;;;;10.13;7.40;;;25.40;99.90;;;25.94;56.69;101886.66;5052294;28;20533;-62
2022/07/13 01:51:51;;;;;;;13.15;7.88;;;25.40;99.90;;;25.98;56.42;101878.38;5053263;28;20069;-62
2022/07/13 01:54:19;;;;;;;9.23;7.88;;;25.50;99.90;;;26.00;56.38;101885.47;5052203;28;20045;-62
2022/07/13 01:56:47;;;;;;;11.02;8.35;;;25.50;99.90;;;26.06;56.63;101889.72;5052812;28;20151;-62
2022/07/13 01:59:17;;;;;;;12.05;8.00;;;25.50;99.90;;;25.91;56.72;101853.41;5052339;28;20057;-62
2022/07/13 02:01:45;;;;;;;14.23;8.53;;;25.50;99.90;;;26.07;57.04;101867.06;5053148;28;20068;-62
2022/07/13 02:04:14;;;;;;;10.60;9.07;;;25.50;99.90;;;25.94;57.27;101873.09;5053621;28;20099;-63
2022/07/13 02:06:42;;;;;;;11.52;8.48;;;25.40;99.90;;;25.85;57.73;101859.13;5053347;28;20045;-62
2022/07/13 02:09:11;;;;;;;14.77;8.90;;;25.30;99.90;;;25.88;57.49;101867.09;5053314;28;20044;-62
2022/07/13 02:11:39;;;;;;;9.73;7.38;;;25.30;99.90;;;25.85;57.34;101870.88;5052059;28;20079;-62
2022/07/13 02:14:08;;;;;;;11.90;8.30;;;25.30;99.90;;;25.86;57.31;101864.47;5052028;28;20095;-62
2022/07/13 02:16:37;;;;;;;8.63;7.75;;;25.40;99.90;;;25.89;57.27;101869.75;5051971;28;20069;-62
2022/07/13 02:19:06;;;;;;;11.45;8.32;;;25.40;99.90;;;25.93;57.07;101865.94;5052005;28;20144;-62
2022/07/13 02:21:34;;;;;;;9.90;8.27;;;25.40;99.90;;;26.04;56.70;101873.50;5053192;28;20041;-62
2022/07/13 02:24:03;;;;;;;12.10;8.02;;;25.50;99.90;;;26.06;56.59;101873.44;5052091;28;20495;-62
2022/07/13 02:26:31;;;;;;;8.93;8.02;;;25.50;99.90;;;26.08;56.95;101860.69;5053011;28;20052;-62
2022/07/13 02:29:00;;;;;;;10.80;8.25;;;25.50;99.90;;;26.09;56.78;101859.72;5052054;28;20045;-62
2022/07/13 02:31:28;;;;;;;11.35;10.15;;;25.60;99.90;;;26.11;56.99;101866.84;5051859;28;20143;-62
2022/07/13 02:33:59;;;;;;;14.40;9.57;;;25.60;99.90;;;26.16;57.18;101872.88;5051775;28;20053;-62
2022/07/13 02:36:27;;;;;;;12.52;9.98;;;25.60;99.90;;;26.14;56.77;101857.66;5053072;28;20094;-62
2022/07/13 02:38:56;;;;;;;12.80;10.15;;;25.60;99.90;;;26.13;56.86;101861.31;5051788;28;20080;-62
2022/07/13 02:41:24;;;;;;;12.05;10.25;;;25.60;99.90;;;26.13;57.15;101864.91;5053026;28;20072;-62
2022/07/13 02:43:52;;;;;;;13.55;9.82;;;25.60;99.90;;;26.11;57.08;101861.41;5051738;28;20048;-62
2022/07/13 02:46:21;;;;;;;11.30;9.32;;;25.60;99.90;;;26.12;57.03;101867.69;5051702;28;20053;-63
2022/07/13 02:48:49;;;;;;;13.18;9.18;;;25.60;99.90;;;26.14;56.83;101865.78;5052932;28;20048;-62
2022/07/13 02:51:20;;;;;;;12.93;9.15;;;25.60;99.90;;;26.13;56.98;101866.75;5051601;28;20080;-63
2022/07/13 02:53:48;;;;;;;9.70;8.70;;;25.60;99.90;;;26.19;56.74;101864.56;5051722;28;20056;-63
2022/07/13 02:56:17;;;;;;;12.07;8.82;;;25.70;99.90;;;26.24;56.72;101867.06;5051494;28;20045;-63
2022/07/13 02:58:45;;;;;;;11.13;9.57;;;25.70;99.90;;;26.11;56.98;101830.69;5051805;28;20573;-63
2022/07/13 03:01:14;;;;;;;10.98;9.48;;;25.70;99.90;;;26.17;57.36;101849.34;5051558;28;20037;-63
2022/07/13 03:03:42;;;;;;;11.25;8.65;;;25.60;99.90;;;26.19;57.58;101848.28;5051516;28;20488;-63
2022/07/13 03:06:11;;;;;;;13.75;9.48;;;25.60;99.90;;;26.09;57.77;101843.47;5051511;28;20048;-63
2022/07/13 03:08:41;;;;;;;10.13;9.10;;;25.60;99.90;;;25.99;57.90;101834.00;5052779;28;20056;-62
2022/07/13 03:11:09;;;;;;;11.97;9.27;;;25.50;99.90;;;25.97;58.13;101835.94;5056537;28;20059;-62
2022/07/13 03:13:38;;;;;;;11.95;9.50;;;25.50;99.90;;;25.96;58.10;101829.63;5055205;28;20299;-62
2022/07/13 03:16:07;;;;;;;12.32;9.57;;;25.40;99.90;;;25.93;58.21;101835.22;5055180;28;20127;-63
2022/07/13 03:18:36;;;;;;;11.70;9.57;;;25.50;99.90;;;25.87;58.54;101821.97;5055080;28;20498;-62
2022/07/13 03:21:08;;;;;;;;;;;25.40;99.90;;;25.87;58.68;101819.28;5055588;28;20633;-62
2022/07/13 03:23:36;;;;;;;12.48;9.38;;;25.40;99.90;;;25.80;58.72;101828.69;5071909;28;19920;-63
2022/07/13 03:26:06;;;;;;;10.68;8.80;;;25.30;99.90;;;25.81;58.13;101831.31;5054932;28;20055;-63
2022/07/13 03:28:35;;;;;;;9.30;8.40;;;25.30;99.90;;;25.81;57.85;101823.19;5071645;28;20494;-63
2022/07/13 03:31:04;;;;;;;10.32;8.90;;;25.30;99.90;;;25.82;57.81;101824.91;5056111;28;20466;-63
2022/07/13 03:33:33;;;;;;;10.90;8.10;;;25.30;99.90;;;25.86;57.31;101826.50;5054775;28;20144;-63
2022/07/13 03:36:02;;;;;;;7.97;7.22;;;25.30;99.90;;;25.86;57.11;101826.50;5054679;28;20045;-63
2022/07/13 03:38:31;;;;;;;8.55;7.45;;;25.30;99.90;;;25.83;57.18;101823.97;5087911;28;20080;-63
2022/07/13 03:40:59;;;;;;;10.77;7.88;;;25.30;99.90;;;25.88;56.98;101832.75;5054610;28;20091;-63
2022/07/13 03:43:29;;;;;;;10.85;7.65;;;25.30;99.90;;;25.89;57.12;101828.19;5054348;28;20053;-63
2022/07/13 03:45:58;;;;;;;8.30;7.20;;;25.30;99.90;;;25.89;57.12;101830.91;5054617;28;20049;-63
2022/07/13 03:48:26;;;;;;;10.15;6.78;;;25.30;99.90;;;25.39;57.14;101745.91;5054506;28;20430;-63
2022/07/13 03:50:55;;;;;;;9.05;7.25;;;25.30;99.90;;;25.84;57.13;101824.88;5054481;28;20110;-63
2022/07/13 03:53:23;;;;;;;7.53;6.82;;;25.30;99.90;;;25.86;56.93;101826.50;5054287;28;20487;-63
2022/07/13 03:55:52;;;;;;;10.15;6.97;;;25.30;99.90;;;25.81;56.92;101823.19;5054325;28;20099;-63
2022/07/13 03:58:20;;;;;;;7.82;6.95;;;25.30;99.90;;;25.80;56.85;101817.84;5087868;28;20091;-63
2022/07/13 04:00:51;;;;;;;10.40;7.68;;;25.30;99.90;;;25.78;56.79;101819.75;5054276;28;20080;-63
2022/07/13 04:03:20;;;;;;;11.13;7.05;;;25.20;99.90;;;25.76;57.03;101822.53;5054240;28;20049;-64
2022/07/13 04:05:49;;;;;;;8.65;7.47;;;25.20;99.90;;;25.75;57.32;101831.63;5054138;28;20486;-63
2022/07/13 04:08:18;;;;;;;7.82;6.90;;;25.20;99.90;;;25.78;58.72;101838.75;5053852;28;20045;-63
2022/07/13 04:10:47;;;;;;;9.73;6.95;;;25.20;99.90;;;25.78;57.54;101834.16;5054295;28;20135;-63
2022/07/13 04:13:17;;;;;;;8.07;6.47;;;25.20;99.90;;;25.75;57.93;101834.34;5054062;28;20048;-63
2022/07/13 04:15:45;;;;;;;7.35;6.65;;;25.20;99.90;;;25.83;57.33;101833.94;5054129;28;20299;-63
2022/07/13 04:18:16;;;;;;;8.13;6.57;;;25.20;99.90;;;25.87;57.09;101832.81;5053959;28;20043;-63
2022/07/13 04:20:44;;;;;;;9.30;6.43;;;25.30;99.90;;;25.89;57.14;101830.91;5054365;28;20045;-63
2022/07/13 04:23:13;;;;;;;11.77;6.90;;;25.30;99.90;;;25.91;57.24;101829.88;5055111;28;20048;-63
2022/07/13 04:25:42;;;;;;;7.32;6.57;;;25.30;99.90;;;25.93;57.30;101827.97;5053749;28;20045;-63
2022/07/13 04:28:10;;;;;;;11.27;6.97;;;25.40;99.90;;;25.94;57.49;101832.41;5053788;28;20037;-63
2022/07/13 04:30:39;;;;;;;7.75;6.75;;;25.40;99.90;;;25.92;58.41;101831.63;5053714;28;20148;-63
2022/07/13 04:33:09;;;;;;;10.18;6.30;;;25.40;99.90;;;25.92;59.05;101828.03;5053640;28;20103;-62
2022/07/13 04:35:38;;;;;;;9.85;6.97;;;25.40;99.90;;;25.90;59.38;101830.81;5054823;28;20225;-63
2022/07/13 04:38:07;;;;;;;10.93;6.07;;;25.40;99.90;;;25.90;59.65;101830.81;5054861;28;20127;-63
2022/07/13 04:40:36;;;;;;;7.72;6.15;;;25.30;99.90;;;25.90;58.97;101822.69;5053497;28;20040;-63
2022/07/13 04:43:04;;;;;;;11.07;6.82;;;25.40;99.90;;;25.87;58.69;101825.56;5053533;28;20482;-63
2022/07/13 04:45:33;;;;;;;9.07;6.80;;;25.30;99.90;;;25.93;58.68;101835.22;5054658;28;20128;-63
2022/07/13 04:48:01;;;;;;;8.40;6.88;;;25.40;99.90;;;25.94;58.66;101832.41;5086832;28;20051;-63
2022/07/13 04:50:33;;;;;;;11.23;6.90;;;25.40;99.90;;;25.89;58.91;101817.34;5053420;28;20044;-63
2022/07/13 04:53:03;;;;;;;9.35;7.03;;;25.40;99.90;;;25.96;59.06;101831.47;5053092;28;20052;-63
2022/07/13 04:55:31;;;;;;;8.63;6.95;;;25.40;99.90;;;26.02;58.86;101839.25;5070150;28;20593;-63
2022/07/13 04:58:00;;;;;;;8.98;7.00;;;25.50;99.90;;;26.03;58.91;101835.59;5053087;28;20049;-63
2022/07/13 05:00:28;;;;;;;10.43;7.07;;;25.50;99.90;;;26.05;58.99;101829.16;5053165;28;20110;-63
2022/07/13 05:03:03;;;;;;;10.88;7.70;;;25.50;99.90;;;26.06;58.94;101835.47;5053405;28;20053;-63
2022/07/13 05:05:32;;;;;;;10.32;7.05;;;25.50;99.90;;;26.05;58.79;101828.28;5053088;28;20098;-63
2022/07/13 05:08:03;;;;;;;11.32;7.35;;;25.50;99.90;;;25.99;59.43;101817.75;5052735;28;20135;-63
2022/07/13 05:10:32;;;;;;;8.57;6.43;;;25.50;99.90;;;25.88;60.18;101819.19;5052970;28;20099;-63
2022/07/13 05:13:00;;;;;;;7.55;6.13;;;25.40;99.90;;;25.81;60.31;101820.47;5052823;28;20048;-63
2022/07/13 05:15:50;;;;;;;6.20;5.10;;;25.20;99.90;;;25.60;60.96;101832.44;5052891;28;20095;-63
2022/07/13 05:18:20;;;;;;;7.90;5.80;;;25.10;99.90;;;25.63;60.89;101831.38;5086750;28;20064;-63
2022/07/13 05:20:48;;;;;;;11.48;5.90;;;25.00;99.90;;;25.73;60.29;101833.53;5052415;28;20072;-63
2022/07/13 05:23:18;;;;;;;10.05;6.00;;;25.10;99.90;;;25.77;60.85;101834.25;5052658;28;20040;-63
2022/07/13 05:25:47;;;;;;;8.32;5.88;;;25.20;99.90;;;25.66;62.19;101832.13;5052660;28;20052;-63
2022/07/13 05:28:15;;;;;;;6.63;5.82;;;25.20;99.90;;;25.46;62.12;101834.97;5052676;28;20041;-63
2022/07/13 05:30:44;;;;;;;9.55;5.93;;;25.00;99.90;;;25.46;62.34;101845.78;5052553;28;20076;-63
2022/07/13 05:33:12;;;;;;;11.57;6.20;;;25.00;99.90;;;25.56;62.17;101835.38;5052167;28;20087;-63
2022/07/13 05:35:40;;;;;;;6.97;6.25;;;25.00;99.90;;;25.61;62.77;101833.31;5052727;28;20441;-63
2022/07/13 05:38:10;;;;;;;8.35;6.80;;;25.00;99.90;;;25.52;62.69;101844.59;5052399;28;20033;-63
2022/07/13 05:40:40;;;;;;;6.90;6.20;;;25.00;99.90;;;25.55;63.29;101848.03;5052380;28;20094;-63
2022/07/13 05:43:13;;;;;;;8.20;5.88;;;25.00;99.90;;;25.34;63.68;101835.53;5052634;28;20052;-62
2022/07/13 05:45:42;;;;;;;12.73;6.22;;;24.90;99.90;;;25.29;64.18;101851.16;5052311;28;20045;-63
2022/07/13 05:48:11;;;;;;;12.13;5.97;;;24.80;99.90;;;25.29;63.87;101843.03;5052272;28;20545;-62
2022/07/13 05:50:40;;;;;;;7.83;6.50;;;24.80;99.90;;;25.37;64.02;101858.91;5052410;28;20405;-63
2022/07/13 05:53:09;;;;;;;9.27;6.80;;;24.90;99.90;;;25.10;65.17;101852.13;5085419;28;20065;-62
2022/07/13 05:55:37;;;;;;;9.57;6.57;;;24.70;99.90;;;25.01;65.61;101834.50;5052185;28;20071;-62
2022/07/13 05:58:07;;;;;;;10.32;6.78;;;24.60;99.90;;;25.17;65.89;101853.56;5053089;28;20047;-62
2022/07/13 06:00:35;;;;;;;11.00;7.13;;;24.60;99.90;;;25.11;66.45;101852.06;5053308;28;20111;-63
2022/07/13 06:03:03;;;;;;;15.50;7.18;;;24.60;99.90;;;25.09;66.68;101853.94;5053281;28;20283;-63
2022/07/13 06:05:32;;;;;;;13.00;6.70;;;24.60;99.90;;;25.10;66.57;101852.13;5053604;28;20037;-63
2022/07/13 06:08:00;;;;;;;8.40;6.70;;;24.60;99.90;;;25.11;66.76;101862.88;5053580;28;20052;-63
2022/07/13 06:10:29;;;;;;;8.93;6.45;;;24.60;99.90;;;25.13;67.27;101860.97;5053251;28;20091;-62
2022/07/13 06:12:58;;;;;;;9.40;7.10;;;24.60;99.90;;;24.82;68.07;101848.03;5051860;28;20501;-63
2022/07/13 06:15:27;;;;;;;12.65;7.53;;;24.50;99.90;;;24.94;67.69;101861.00;5053213;28;20077;-63
2022/07/13 06:17:56;;;;;;;9.33;6.90;;;24.50;99.90;;;25.04;67.44;101862.31;5053093;28;20051;-63
2022/07/13 06:20:24;;;;;;;10.38;7.13;;;24.50;99.90;;;24.68;67.87;101807.19;5052832;28;20311;-63
2022/07/13 06:25:35;;;;;;;9.85;7.03;;;24.40;99.90;;;24.98;68.48;101856.31;5052679;28;20049;-62
2022/07/13 06:28:04;;;;;;;8.93;6.75;;;24.50;99.90;;;25.04;67.86;101866.84;5052783;28;20033;-63
2022/07/13 06:30:35;;;;;;;8.95;6.72;;;24.50;99.90;;;24.83;68.09;101857.06;5052746;28;20554;-62
2022/07/13 06:33:04;;;;;;;10.93;7.43;;;24.40;99.90;;;24.72;67.91;101856.66;5053082;28;20067;-63
2022/07/13 06:35:33;;;;;;;8.68;6.88;;;24.30;99.90;;;24.72;67.90;101862.06;5051811;28;20047;-62
2022/07/13 06:38:01;;;;;;;11.50;6.53;;;24.20;99.90;;;24.77;67.28;101857.34;5053076;28;20037;-63
2022/07/13 06:40:29;;;;;;;9.02;6.68;;;24.20;99.90;;;24.79;67.34;101869.88;5053016;28;20478;-62
2022/07/13 06:42:58;;;;;;;8.13;6.35;;;24.20;99.90;;;24.76;68.46;101848.34;5052943;28;20115;-62
2022/07/13 06:45:26;;;;;;;8.68;6.93;;;24.30;99.90;;;24.75;67.93;101857.44;5056736;28;20045;-62
2022/07/13 06:47:56;;;;;;;8.60;6.45;;;24.30;99.90;;;24.88;67.57;101868.53;5056682;28;20075;-62
2022/07/13 06:50:25;;;;;;;9.80;6.70;;;24.30;99.90;;;24.70;68.04;101861.28;5055661;28;20462;-63
2022/07/13 06:52:53;;;;;;;9.30;6.70;;;24.20;99.90;;;24.76;68.08;101861.88;5056742;28;20433;-62
2022/07/13 06:55:22;;;;;;;10.63;7.05;;;24.30;99.90;;;24.79;67.88;101869.88;5056478;28;20079;-62
2022/07/13 06:57:51;;;;;;;16.65;6.63;;;24.30;99.90;;;24.77;66.80;101870.88;5055330;28;20045;-62
2022/07/13 07:00:20;;;;;;;9.55;7.00;;;24.30;99.90;;;24.62;67.12;101866.16;5055397;28;20398;-62
2022/07/13 07:02:48;;;;;;;8.93;6.65;;;24.20;99.90;;;24.48;67.42;101864.09;5056652;28;20456;-63
2022/07/13 07:05:18;;;;;;;8.98;6.90;;;24.00;99.90;;;24.51;67.66;101860.34;5056326;28;20064;-63
2022/07/13 07:07:46;;;;;;;9.70;7.00;;;24.00;99.90;;;24.62;68.81;101863.44;5056355;28;20095;-63
2022/07/13 07:10:14;;;;;;;20.85;7.38;;;24.10;99.90;;;24.67;68.99;101872.22;5056649;28;20043;-62
2022/07/13 07:12:43;;;;;;;12.30;6.93;;;24.20;99.90;;;24.82;68.80;101868.81;5056148;28;20045;-62
2022/07/13 07:15:11;;;;;;;10.95;6.75;;;24.30;99.90;;;25.04;67.82;101874.97;5056643;28;20033;-62
2022/07/13 07:17:46;;;;;;;14.20;7.68;;;24.40;99.90;;;25.07;67.41;101898.34;5056039;28;20044;-63
2022/07/13 07:20:16;;;;;;;11.38;6.68;;;24.60;99.90;;;24.90;65.73;101829.63;5056301;28;20045;-62
2022/07/13 07:22:46;;;;;;;9.15;7.55;;;24.70;99.90;;;25.04;65.80;101877.69;5056034;28;20061;-63
2022/07/13 07:25:16;;;;;;;12.00;7.40;;;24.60;99.90;;;24.93;67.23;101877.34;5056168;28;20049;-63
2022/07/13 07:27:45;;;;;;;11.30;7.63;;;24.50;99.90;;;24.91;66.51;101881.94;5055925;28;20083;-62
2022/07/13 07:30:13;;;;;;;11.15;7.32;;;24.50;99.90;;;25.13;66.03;101877.22;5055893;28;20033;-62
2022/07/13 07:32:41;;;;;;;9.65;6.90;;;24.60;99.90;;;25.38;65.82;101874.19;5055835;28;20114;-63
2022/07/13 07:35:11;;;;;;;7.57;6.75;;;24.80;99.90;;;25.51;64.63;101873.53;5054440;28;20049;-63
2022/07/13 07:37:40;;;;;;;8.10;6.90;;;25.00;99.90;;;25.54;64.69;101862.56;5055955;28;20486;-63
2022/07/13 07:40:11;;;;;;;17.63;7.13;;;25.10;99.90;;;25.44;63.78;101874.81;5055693;28;20045;-63
2022/07/13 07:42:39;;;;;;;9.50;6.88;;;25.00;99.90;;;25.46;64.55;101867.47;5055626;28;20055;-62
2022/07/13 07:45:09;;;;;;;11.80;6.82;;;25.00;99.90;;;25.35;63.87;101869.81;5055612;28;20073;-62
2022/07/13 07:47:38;;;;;;;9.57;6.57;;;24.90;99.90;;;25.32;63.19;101852.84;5056134;28;20107;-62
2022/07/13 07:50:09;;;;;;;8.55;6.28;;;25.00;99.90;;;25.42;63.37;101876.72;5055414;28;20048;-63
2022/07/13 07:52:37;;;;;;;10.02;5.97;;;24.90;99.90;;;25.51;63.07;101889.78;5055871;28;20440;-62
2022/07/13 07:55:27;;;;;;;9.68;6.63;;;25.10;99.90;;;25.50;62.81;101893.47;5052967;28;20045;-62
2022/07/13 07:57:55;;;;;;;8.63;6.10;;;25.10;99.90;;;24.90;63.84;101805.25;5055501;28;20067;-62
2022/07/13 08:00:24;;;;;;;10.50;6.22;;;25.00;99.90;;;25.53;63.13;101889.75;5055090;28;20049;-63
2022/07/13 08:02:52;;;;;;;10.82;6.55;;;25.10;99.90;;;25.55;63.96;101887.84;5055440;28;20135;-63
2022/07/13 08:05:21;;;;;;;8.88;6.60;;;25.20;99.90;;;25.47;63.63;101881.91;5055693;28;20041;-62
2022/07/13 08:07:50;;;;;;;10.02;7.00;;;25.00;99.90;;;25.49;63.62;101867.31;5055166;28;20409;-63
2022/07/13 08:10:19;;;;;;;13.30;7.13;;;25.10;99.90;;;25.84;63.17;101881.81;5055029;28;20461;-63
2022/07/13 08:12:59;;;;;;;10.70;6.53;;;25.40;99.90;;;25.58;62.32;101858.72;5055376;28;20041;-63
2022/07/13 08:15:28;;;;;;;10.80;7.00;;;25.30;99.90;;;25.76;61.35;101887.59;5055239;28;20509;-62
2022/07/13 08:17:57;;;;;;;11.68;7.15;;;25.40;99.90;;;25.76;61.32;101887.59;5055053;28;20041;-63
2022/07/13 08:20:26;;;;;;;11.20;6.78;;;25.40;99.90;;;25.85;61.25;101898.00;5054804;28;20049;-62
2022/07/13 08:22:55;;;;;;;8.63;6.47;;;25.40;99.90;;;25.92;60.56;101885.88;5053859;28;20045;-62
2022/07/13 08:25:24;;;;;;;7.53;6.18;;;25.50;99.90;;;25.96;61.74;101891.16;5054784;28;20072;-63
2022/07/13 08:27:52;;;;;;;10.05;6.53;;;25.50;99.90;;;25.85;60.31;101884.44;5054711;28;20123;-63
2022/07/13 08:30:22;;;;;;;10.15;6.43;;;25.50;99.90;;;25.99;60.79;101889.16;5054659;28;20041;-63
2022/07/13 08:32:50;;;;;;;10.53;6.43;;;25.50;99.90;;;25.76;61.58;101860.47;5055200;28;20132;-62
2022/07/13 08:41:03;;;;;;;8.90;6.85;;;25.70;99.90;;;26.38;59.55;101897.94;5054513;28;20049;-62
2022/07/13 08:43:33;;;;;;;10.10;6.43;;;25.90;99.90;;;26.43;60.99;101895.84;5054372;28;20041;-63
2022/07/13 08:46:08;;;;;;;9.05;6.40;;;26.00;99.90;;;26.41;60.12;101900.47;5054632;28;20084;-63
2022/07/13 08:48:39;;;;;;;13.48;7.22;;;26.00;99.90;;;26.39;59.62;101910.53;5054858;28;20056;-63
2022/07/13 08:51:08;;;;;;;8.43;6.50;;;25.90;99.90;;;26.39;59.64;101910.53;5054509;28;20041;-63
2022/07/13 08:53:36;;;;;;;13.57;7.32;;;26.00;99.90;;;26.54;58.91;101908.81;5052902;28;20502;-63
2022/07/13 08:56:05;;;;;;;10.00;6.63;;;26.00;99.90;;;26.74;59.64;101905.94;5054734;28;20069;-63
2022/07/13 08:58:37;;;;;;;9.10;6.65;;;26.20;99.90;;;26.75;60.21;101914.00;5054330;28;20098;-63
2022/07/13 09:01:09;;;;;;;12.05;7.03;;;26.30;99.90;;;26.87;58.67;101911.59;5054710;28;20041;-63
2022/07/13 09:03:38;;;;;;;10.65;7.20;;;26.40;99.90;;;26.94;57.87;101911.16;5054278;28;20041;-62
2022/07/13 09:06:06;;;;;;;12.45;6.80;;;26.50;99.90;;;26.93;59.68;101912.09;5053927;28;20398;-63
2022/07/13 09:08:42;;;;;;;12.07;7.03;;;26.50;99.90;;;26.89;59.03;101910.50;5053782;28;20483;-63
2022/07/13 09:11:11;;;;;;;9.38;7.30;;;26.50;99.90;;;26.77;59.65;101913.94;5054399;28;20041;-63
2022/07/13 09:13:41;;;;;;;9.80;6.63;;;26.40;99.90;;;26.87;59.43;101912.44;5053791;28;20037;-63
2022/07/13 09:16:17;;;;;;;14.57;7.35;;;26.40;99.90;;;27.00;59.11;101920.78;5052726;28;20052;-63
2022/07/13 09:18:47;;;;;;;11.80;6.80;;;26.50;99.90;;;27.12;59.62;101907.38;5054057;28;20052;-63
2022/07/13 09:21:16;;;;;;;11.48;6.60;;;26.60;99.90;;;27.37;57.84;101912.34;5054041;28;20111;-63
2022/07/13 09:23:48;;;;;;;11.85;6.78;;;26.80;99.90;;;27.61;57.28;101911.78;5054227;28;20055;-63
2022/07/13 09:26:18;;;;;;;14.70;6.90;;;27.10;99.90;;;27.57;57.70;101914.78;5053709;28;20099;-63
2022/07/13 09:28:49;;;;;;;10.55;6.47;;;27.10;99.90;;;27.58;56.26;101894.78;5053473;28;20133;-63
2022/07/13 09:31:19;;;;;;;11.60;7.15;;;27.30;99.90;;;27.44;56.25;101919.19;5053805;28;20099;-63
2022/07/13 09:33:49;;;;;;;7.38;5.75;;;27.00;99.90;;;27.30;55.02;101917.22;5053562;28;20045;-63
2022/07/13 09:36:22;;;;;;;6.45;5.85;;;26.80;99.90;;;27.29;55.34;101909.16;5053426;28;20040;-63
2022/07/13 09:38:52;;;;;;;8.75;6.38;;;26.90;99.90;;;27.32;56.99;101920.75;5053366;28;20102;-63
2022/07/13 09:41:23;;;;;;;8.68;6.32;;;26.80;99.90;;;27.24;55.73;101927.53;5053506;28;20049;-63
2022/07/13 09:46:56;;;;;;;9.45;6.30;;;26.90;99.90;;;27.24;56.97;101920.28;4979425;28;20054;-63
2022/07/13 09:49:40;;;;;;;8.45;7.18;;;26.80;99.90;;;27.30;57.35;101919.94;5053321;28;20388;-63
2022/07/13 09:52:11;;;;;;;11.32;7.28;;;26.80;99.90;;;27.36;58.23;101925.06;5052220;28;20099;-63
2022/07/13 09:54:42;;;;;;;12.32;7.57;;;26.90;99.90;;;27.28;58.37;101919.16;5053527;28;20083;-63
2022/07/13 09:57:13;;;;;;;12.98;7.97;;;26.90;99.90;;;26.84;58.67;101917.16;5053708;28;20041;-63
2022/07/13 09:59:43;;;;;;;10.98;7.72;;;26.50;99.90;;;26.40;57.78;101819.13;5053184;28;20136;-63
2022/07/13 10:02:14;;;;;;;11.77;6.63;;;26.50;99.90;;;27.06;57.88;101923.16;5053222;28;20336;-63
2022/07/13 10:04:43;;;;;;;10.75;7.35;;;26.50;99.90;;;26.91;57.67;101929.44;5053679;28;20094;-63
2022/07/13 10:07:18;;;;;;;10.88;6.72;;;26.50;99.90;;;26.83;57.10;101921.72;5053112;28;20052;-63
2022/07/13 10:09:47;;;;;;;9.05;6.22;;;26.40;99.90;;;27.17;57.49;101929.75;5053679;28;20118;-63
2022/07/13 10:12:15;;;;;;;10.02;6.82;;;26.60;99.90;;;27.37;57.39;101925.94;5053062;28;20072;-63
2022/07/13 10:14:44;;;;;;;11.48;7.22;;;26.90;99.90;;;27.41;56.71;101920.22;5052947;28;20040;-63
2022/07/13 10:17:23;;;;;;;10.73;6.03;;;27.00;99.90;;;27.64;56.58;101937.94;5053008;28;20048;-63
2022/07/13 10:20:02;;;;;;;10.57;6.35;;;27.10;99.90;;;27.74;55.68;101936.41;5052730;28;20598;-63
2022/07/13 10:22:36;;;;;;;9.35;5.88;;;27.30;99.90;;;27.80;56.24;101946.09;5053128;28;20111;-63
2022/07/13 10:25:06;;;;;;;8.75;5.60;;;27.30;99.90;;;28.00;54.84;101945.78;5053193;28;20162;-63
2022/07/13 10:27:36;;;;;;;8.57;5.43;;;27.50;99.90;;;27.93;53.90;101950.72;5053142;28;20482;-63